Time;durP1;ratioP1;P1;durP2;ratioP2;P2;SDS_P1;SDS_P2;PMS_P1;PMS_P2;Temp;Humidity;BMP_temperature;BMP_pressure;BME280_temperature;BME280_humidity;BME280_pressure;Samples;Min_cycle;Max_cycle;Signal;HPM_P1;HPM_P2
2022/12/13 00:01:46;;;;;;;3.65;3.00;;;3.30;85.30;;;;;;4925604;29;20289;-73
2022/12/13 00:04:16;;;;;;;4.43;3.65;;;3.30;85.40;;;;;;4935203;28;20224;-73
2022/12/13 00:06:48;;;;;;;5.13;3.85;;;3.30;85.40;;;;;;4911642;29;20694;-73
2022/12/13 00:09:19;;;;;;;6.30;4.15;;;3.30;85.40;;;;;;4931974;28;20227;-75
2022/12/13 00:11:49;;;;;;;5.43;3.40;;;3.30;85.30;;;;;;4926902;29;20290;-74
2022/12/13 00:14:17;;;;;;;4.25;3.33;;;3.30;85.30;;;;;;4943050;28;20221;-74
2022/12/13 00:16:47;;;;;;;4.72;4.22;;;3.30;85.30;;;;;;4918719;29;20190;-74
2022/12/13 00:19:18;;;;;;;5.00;3.95;;;3.30;85.30;;;;;;4926626;28;20236;-75
2022/12/13 00:21:46;;;;;;;4.50;3.17;;;3.30;85.30;;;;;;4915784;29;20205;-74
2022/12/13 00:24:14;;;;;;;5.07;2.80;;;3.30;85.30;;;;;;4908074;29;20232;-74
2022/12/13 00:26:43;;;;;;;4.10;3.70;;;3.30;85.40;;;;;;4912127;29;20615;-74
2022/12/13 00:29:12;;;;;;;5.68;4.03;;;3.30;85.20;;;;;;4918367;29;20232;-74
2022/12/13 00:31:40;;;;;;;4.18;3.70;;;3.30;85.30;;;;;;4911806;29;20208;-75
2022/12/13 00:34:30;;;;;;;4.55;3.63;;;3.30;85.20;;;;;;4908592;29;20404;-74
2022/12/13 00:36:58;;;;;;;5.78;3.67;;;3.30;85.20;;;;;;4910361;29;20202;-76
2022/12/13 00:39:27;;;;;;;4.30;3.40;;;3.30;85.30;;;;;;4900301;29;20724;-73
2022/12/13 00:41:56;;;;;;;4.95;4.28;;;3.30;85.20;;;;;;4922411;29;20257;-74
2022/12/13 00:44:25;;;;;;;4.88;4.10;;;3.30;85.30;;;;;;4918464;29;20670;-75
2022/12/13 00:46:53;;;;;;;4.32;3.47;;;3.30;85.20;;;;;;4923337;29;20227;-76
2022/12/13 00:49:21;;;;;;;4.65;3.38;;;3.30;85.20;;;;;;4916181;29;20729;-72
2022/12/13 00:51:51;;;;;;;4.97;3.40;;;3.30;85.20;;;;;;4914274;29;20250;-73
2022/12/13 00:54:20;;;;;;;5.07;3.00;;;3.30;85.20;;;;;;4908308;29;20809;-75
2022/12/13 00:56:50;;;;;;;4.20;3.38;;;3.30;85.20;;;;;;4926360;29;20276;-76
2022/12/13 00:59:18;;;;;;;4.90;3.25;;;3.30;85.10;;;;;;4917631;29;20250;-75
2022/12/13 01:01:46;;;;;;;3.72;3.33;;;3.30;85.20;;;;;;4924464;29;20855;-73
2022/12/13 01:04:15;;;;;;;5.60;3.58;;;3.30;85.20;;;;;;4911316;29;20217;-72
2022/12/13 01:06:45;;;;;;;3.90;3.50;;;3.20;85.00;;;;;;4926878;29;20209;-74
2022/12/13 01:09:18;;;;;;;5.47;3.65;;;3.20;85.00;;;;;;4911395;29;20706;-74
2022/12/13 01:11:47;;;;;;;4.70;3.65;;;3.20;84.90;;;;;;4909807;29;20289;-75
2022/12/13 01:14:16;;;;;;;6.45;3.50;;;3.30;85.10;;;;;;4913910;29;20600;-75
2022/12/13 01:16:44;;;;;;;5.55;4.00;;;3.20;85.00;;;;;;4909408;29;20193;-75
2022/12/13 01:19:13;;;;;;;4.72;3.53;;;3.20;85.00;;;;;;4917971;28;20221;-74
2022/12/13 01:21:41;;;;;;;5.53;4.82;;;3.20;85.00;;;;;;4922357;29;20287;-74
2022/12/13 01:24:10;;;;;;;5.70;4.13;;;3.20;84.90;;;;;;4914906;29;20280;-75
2022/12/13 01:26:39;;;;;;;4.63;3.40;;;3.20;85.20;;;;;;4912876;29;20228;-74
2022/12/13 01:29:10;;;;;;;4.65;3.83;;;3.20;86.20;;;;;;4913665;29;20693;-74
2022/12/13 01:31:40;;;;;;;4.80;3.90;;;3.20;85.00;;;;;;4905882;29;20201;-75
2022/12/13 01:34:10;;;;;;;4.60;3.88;;;3.20;85.00;;;;;;4911389;29;20232;-73
2022/12/13 01:36:39;;;;;;;4.82;4.18;;;3.20;85.00;;;;;;4933851;29;20682;-74
2022/12/13 01:39:09;;;;;;;5.57;3.65;;;3.20;85.00;;;;;;4914291;29;20312;-74
2022/12/13 01:41:45;;;;;;;5.15;3.63;;;3.20;85.00;;;;;;4922088;29;20666;-75
2022/12/13 01:44:51;;;;;;;4.82;4.30;;;3.20;85.00;;;;;;4920103;29;20235;-74
2022/12/13 01:47:24;;;;;;;3.47;3.17;;;3.20;85.00;;;;;;4912494;29;20232;-75
2022/12/13 01:49:56;;;;;;;4.68;2.92;;;3.20;85.00;;;;;;4909425;29;20304;-74
2022/12/13 01:52:30;;;;;;;4.32;3.60;;;3.20;84.90;;;;;;4933801;29;20253;-75
2022/12/13 01:54:59;;;;;;;4.10;3.70;;;3.20;85.00;;;;;;4906823;29;20221;-74
2022/12/13 01:57:34;;;;;;;5.20;3.50;;;3.20;84.90;;;;;;4925361;29;20225;-73
2022/12/13 02:00:07;;;;;;;6.38;4.00;;;3.20;85.00;;;;;;4911677;29;20311;-74
2022/12/13 02:02:36;;;;;;;4.90;3.97;;;3.20;85.10;;;;;;4910086;29;20336;-74
2022/12/13 02:05:10;;;;;;;5.97;3.80;;;3.20;85.00;;;;;;4924885;29;20693;-75
2022/12/13 02:07:40;;;;;;;5.72;4.07;;;3.10;84.90;;;;;;4928274;29;20332;-74
2022/12/13 02:10:10;;;;;;;5.05;3.95;;;3.10;84.90;;;;;;4924644;29;20209;-73
2022/12/13 02:12:42;;;;;;;6.32;4.10;;;3.10;84.90;;;;;;4918088;29;20201;-76
2022/12/13 02:15:13;;;;;;;4.18;3.78;;;3.20;84.90;;;;;;4906456;29;20641;-74
2022/12/13 02:18:06;;;;;;;6.40;4.07;;;3.10;84.80;;;;;;4917242;29;20220;-74
2022/12/13 02:21:03;;;;;;;3.97;3.50;;;3.10;84.80;;;;;;4918530;29;20221;-75
2022/12/13 02:23:51;;;;;;;5.60;3.83;;;3.10;84.70;;;;;;4914130;28;20248;-74
2022/12/13 02:26:41;;;;;;;5.30;3.97;;;3.10;84.70;;;;;;4912001;29;20212;-75
2022/12/13 02:29:32;;;;;;;4.13;3.67;;;3.10;84.70;;;;;;4917269;29;20228;-74
2022/12/13 02:32:08;;;;;;;4.38;3.97;;;3.10;84.70;;;;;;4914864;29;20211;-75
2022/12/13 02:34:39;;;;;;;3.80;3.17;;;3.10;84.70;;;;;;4908442;29;20228;-74
2022/12/13 02:37:16;;;;;;;8.23;3.97;;;3.10;84.70;;;;;;4908030;29;20580;-75
2022/12/13 02:39:51;;;;;;;6.25;4.13;;;3.10;84.70;;;;;;4910791;29;20343;-74
2022/12/13 02:42:22;;;;;;;4.78;3.92;;;3.10;84.70;;;;;;4912620;29;20201;-75
2022/12/13 02:44:57;;;;;;;5.13;3.90;;;3.10;84.80;;;;;;4927805;29;20312;-73
2022/12/13 02:47:29;;;;;;;4.57;4.13;;;3.10;84.70;;;;;;4912148;29;20597;-73
2022/12/13 02:50:00;;;;;;;7.07;3.90;;;3.10;84.70;;;;;;4915052;29;20216;-74
2022/12/13 02:52:31;;;;;;;5.75;4.20;;;3.10;84.70;;;;;;4910150;29;20717;-73
2022/12/13 02:54:59;;;;;;;4.35;3.67;;;3.10;84.70;;;;;;4915264;29;20228;-73
2022/12/13 02:57:32;;;;;;;4.60;3.83;;;3.10;84.70;;;;;;4908604;29;20541;-75
2022/12/13 03:00:05;;;;;;;5.18;3.85;;;3.00;84.70;;;;;;4909000;29;20668;-74
2022/12/13 03:02:45;;;;;;;3.92;3.55;;;3.00;84.70;;;;;;4909333;29;20213;-73
2022/12/13 03:08:21;;;;;;;5.18;4.28;;;3.00;84.60;;;;;;4905306;29;20487;-74
2022/12/13 03:10:58;;;;;;;5.20;3.63;;;3.00;84.60;;;;;;4919899;29;20205;-75
2022/12/13 03:13:35;;;;;;;7.00;4.30;;;3.00;84.60;;;;;;4923807;29;20316;-73
2022/12/13 03:16:22;;;;;;;4.43;4.03;;;3.00;84.60;;;;;;4908665;29;20469;-75
2022/12/13 03:18:53;;;;;;;5.20;3.70;;;3.00;84.50;;;;;;4902378;29;20225;-74
2022/12/13 03:21:22;;;;;;;3.78;3.13;;;3.00;84.50;;;;;;4913181;29;20606;-75
2022/12/13 03:23:51;;;;;;;5.05;3.53;;;3.00;84.50;;;;;;4912626;29;20231;-75
2022/12/13 03:26:22;;;;;;;5.95;4.40;;;3.00;84.60;;;;;;4911958;29;20225;-74
2022/12/13 03:28:51;;;;;;;5.38;4.63;;;3.00;84.50;;;;;;4908094;29;20232;-75
2022/12/13 03:31:20;;;;;;;4.55;3.40;;;3.00;84.60;;;;;;4912351;29;20205;-73
2022/12/13 03:33:48;;;;;;;4.93;4.28;;;3.00;84.70;;;;;;4914455;29;20221;-75
2022/12/13 03:36:19;;;;;;;5.35;4.82;;;3.00;84.50;;;;;;4918920;29;20253;-75
2022/12/13 03:38:51;;;;;;;5.53;4.35;;;3.00;84.60;;;;;;4917869;29;20232;-73
2022/12/13 03:41:22;;;;;;;4.28;3.50;;;3.00;84.60;;;;;;4911202;29;20204;-74
2022/12/13 03:43:51;;;;;;;5.25;3.92;;;3.00;84.60;;;;;;4913768;29;20231;-74
2022/12/13 03:46:19;;;;;;;5.03;3.65;;;3.00;84.70;;;;;;4927412;29;20197;-74
2022/12/13 03:48:48;;;;;;;4.50;3.90;;;3.00;84.50;;;;;;4928441;28;20221;-75
2022/12/13 03:51:17;;;;;;;4.25;3.80;;;3.00;84.40;;;;;;4895200;29;20232;-75
2022/12/13 03:53:46;;;;;;;4.53;3.47;;;2.90;84.40;;;;;;4911910;29;20249;-75
2022/12/13 03:56:14;;;;;;;6.03;4.10;;;2.90;84.40;;;;;;4915708;29;20573;-73
2022/12/13 03:58:42;;;;;;;4.05;3.65;;;3.00;84.40;;;;;;4915095;29;20248;-73
2022/12/13 04:01:13;;;;;;;5.43;3.95;;;2.90;84.30;;;;;;4911843;29;20194;-75
2022/12/13 04:03:44;;;;;;;6.43;4.35;;;2.90;84.30;;;;;;4912439;29;20249;-74
2022/12/13 04:06:13;;;;;;;7.25;5.97;;;2.90;84.40;;;;;;4914582;29;20206;-74
2022/12/13 04:08:52;;;;;;;4.57;3.95;;;2.90;84.30;;;;;;4914002;29;20225;-74
2022/12/13 04:14:10;;;;;;;4.57;4.07;;;2.90;84.30;;;;;;4934973;28;20731;-75
2022/12/13 04:16:39;;;;;;;5.70;4.70;;;2.90;84.40;;;;;;4913174;29;20232;-72
2022/12/13 04:19:07;;;;;;;4.55;3.85;;;2.90;84.30;;;;;;4925868;29;20284;-74
2022/12/13 04:21:36;;;;;;;5.80;4.68;;;2.90;84.30;;;;;;4915730;29;20229;-74
2022/12/13 04:24:06;;;;;;;6.50;3.92;;;2.90;84.20;;;;;;4915732;29;20225;-75
2022/12/13 04:26:34;;;;;;;4.68;3.67;;;2.90;83.90;;;;;;4895376;29;20341;-74
2022/12/13 04:29:03;;;;;;;5.55;4.88;;;2.90;84.20;;;;;;4907978;29;20261;-74
2022/12/13 04:31:31;;;;;;;5.68;4.47;;;2.90;84.20;;;;;;4910546;29;20256;-75
2022/12/13 04:34:00;;;;;;;5.75;4.50;;;2.90;84.20;;;;;;4917546;29;20250;-75
2022/12/13 04:36:28;;;;;;;7.22;5.32;;;2.80;84.10;;;;;;4921588;29;20667;-74
2022/12/13 04:39:00;;;;;;;6.68;4.28;;;2.90;84.20;;;;;;4921064;28;20304;-75
2022/12/13 04:41:34;;;;;;;7.00;4.60;;;2.80;84.10;;;;;;4910476;29;20217;-73
2022/12/13 04:44:05;;;;;;;8.20;6.45;;;2.80;84.10;;;;;;4926866;29;20233;-75
2022/12/13 04:46:54;;;;;;;9.35;5.63;;;2.80;83.90;;;;;;4910167;29;20253;-75
2022/12/13 04:49:28;;;;;;;8.10;5.38;;;2.80;83.60;;;;;;4934293;28;20250;-75
2022/12/13 04:51:57;;;;;;;8.45;5.65;;;2.80;84.10;;;;;;4924859;29;20208;-75
2022/12/13 04:54:29;;;;;;;6.90;4.65;;;2.80;84.00;;;;;;4912390;29;20233;-73
2022/12/13 04:57:06;;;;;;;6.68;5.00;;;2.80;84.00;;;;;;4907146;29;20197;-75
2022/12/13 04:59:35;;;;;;;7.38;5.32;;;2.80;84.10;;;;;;4910356;29;20221;-74
2022/12/13 05:02:04;;;;;;;11.95;6.10;;;2.80;84.00;;;;;;4909278;29;20640;-75
2022/12/13 05:04:33;;;;;;;8.32;5.78;;;2.80;83.60;;;;;;4934901;28;20303;-74
2022/12/13 05:07:02;;;;;;;8.13;5.43;;;2.80;84.00;;;;;;4925967;29;20205;-74
2022/12/13 05:09:30;;;;;;;7.53;5.13;;;2.80;83.90;;;;;;4918821;29;20225;-75
2022/12/13 05:11:59;;;;;;;6.90;5.75;;;2.80;84.10;;;;;;4911614;29;20296;-75
2022/12/13 05:14:31;;;;;;;9.07;5.88;;;2.80;84.20;;;;;;4909378;29;20229;-73
2022/12/13 05:16:59;;;;;;;7.75;5.25;;;2.80;84.50;;;;;;4909922;29;20696;-75
2022/12/13 05:19:28;;;;;;;6.50;5.03;;;2.80;84.20;;;;;;4909439;29;20515;-74
2022/12/13 05:21:59;;;;;;;6.65;5.40;;;2.80;84.00;;;;;;4924365;29;20291;-76
2022/12/13 05:24:29;;;;;;;14.10;6.90;;;2.80;83.90;;;;;;4914381;28;20364;-75
2022/12/13 05:26:58;;;;;;;11.23;6.28;;;2.70;83.40;;;;;;4915326;29;20351;-75
2022/12/13 05:29:27;;;;;;;11.63;6.85;;;2.70;83.50;;;;;;4896593;29;20659;-74
2022/12/13 05:31:56;;;;;;;11.13;6.72;;;2.70;82.90;;;;;;4919485;29;20285;-74
2022/12/13 05:34:25;;;;;;;7.63;5.63;;;2.70;83.60;;;;;;4909471;29;20707;-75
2022/12/13 05:36:54;;;;;;;9.98;6.75;;;2.70;83.90;;;;;;4909368;29;20257;-75
2022/12/13 05:39:22;;;;;;;10.38;6.72;;;2.70;83.60;;;;;;4911503;28;20225;-75
2022/12/13 05:41:58;;;;;;;7.88;5.88;;;2.70;83.10;;;;;;4909827;29;20295;-73
2022/12/13 05:44:31;;;;;;;12.55;7.97;;;2.70;83.60;;;;;;4920129;29;20228;-74
2022/12/13 05:47:01;;;;;;;13.05;7.30;;;2.70;83.10;;;;;;4910651;29;20201;-74
2022/12/13 05:49:30;;;;;;;10.05;7.03;;;2.70;83.00;;;;;;4924673;29;20233;-75
2022/12/13 05:51:59;;;;;;;10.65;5.82;;;2.70;82.50;;;;;;4906749;29;21074;-74
2022/12/13 05:54:27;;;;;;;9.30;6.10;;;2.60;83.50;;;;;;4908955;29;20280;-74
2022/12/13 05:56:56;;;;;;;10.27;6.55;;;2.60;83.70;;;;;;4916761;29;20992;-75
2022/12/13 05:59:24;;;;;;;8.82;6.35;;;2.70;83.60;;;;;;4909741;29;20316;-73
2022/12/13 06:01:53;;;;;;;8.35;5.70;;;2.60;83.70;;;;;;4910741;29;20198;-72
2022/12/13 06:04:23;;;;;;;8.38;5.78;;;2.70;83.80;;;;;;4901938;29;20312;-75
2022/12/13 06:06:51;;;;;;;7.68;5.68;;;2.70;83.70;;;;;;4909269;29;20201;-74
2022/12/13 06:09:21;;;;;;;8.60;6.40;;;2.70;83.80;;;;;;4917011;29;20228;-75
2022/12/13 06:11:50;;;;;;;10.40;5.28;;;2.60;84.70;;;;;;4914328;29;20251;-75
2022/12/13 06:14:18;;;;;;;6.78;5.15;;;2.60;83.60;;;;;;4920129;28;20233;-76
2022/12/13 06:16:50;;;;;;;6.32;5.10;;;2.70;83.70;;;;;;4917439;29;20208;-73
2022/12/13 06:19:19;;;;;;;9.30;5.75;;;2.70;83.80;;;;;;4915081;28;20241;-75
2022/12/13 06:21:49;;;;;;;7.55;5.82;;;2.70;83.70;;;;;;4909968;29;20225;-74
2022/12/13 06:24:19;;;;;;;7.53;5.30;;;2.70;83.80;;;;;;4915834;29;20315;-73
2022/12/13 06:26:48;;;;;;;12.77;7.38;;;2.60;83.60;;;;;;4909125;29;20225;-74
2022/12/13 06:29:18;;;;;;;9.38;6.10;;;2.60;83.60;;;;;;4916641;29;20522;-74
2022/12/13 06:31:56;;;;;;;9.18;6.15;;;2.60;83.70;;;;;;4909068;29;20224;-74
2022/12/13 06:34:32;;;;;;;10.88;7.00;;;2.60;83.50;;;;;;4910364;29;20251;-74
2022/12/13 06:37:04;;;;;;;9.75;7.18;;;2.60;83.60;;;;;;4916070;29;20638;-72
2022/12/13 06:39:33;;;;;;;9.07;5.88;;;2.60;83.60;;;;;;4905765;29;20236;-76
2022/12/13 06:42:04;;;;;;;9.90;6.88;;;2.60;83.60;;;;;;4927901;29;20205;-73
2022/12/13 06:44:33;;;;;;;8.63;6.05;;;2.60;83.60;;;;;;4910675;29;20701;-74
2022/12/13 06:47:01;;;;;;;9.50;5.97;;;2.60;84.90;;;;;;4936533;29;20231;-75
2022/12/13 06:49:41;;;;;;;9.75;8.15;;;2.60;83.50;;;;;;4902150;29;20229;-72
2022/12/13 06:52:13;;;;;;;9.15;6.60;;;2.60;83.20;;;;;;4930364;29;20208;-74
2022/12/13 06:54:42;;;;;;;11.60;6.80;;;2.60;83.50;;;;;;4920578;28;20324;-77
2022/12/13 06:57:11;;;;;;;9.77;6.53;;;2.60;83.60;;;;;;4918480;29;20252;-74
2022/12/13 06:59:40;;;;;;;10.23;7.25;;;2.60;83.60;;;;;;4909082;29;20744;-74
2022/12/13 07:02:09;;;;;;;9.10;6.35;;;2.60;83.60;;;;;;4909436;29;20571;-73
2022/12/13 07:04:54;;;;;;;9.65;6.15;;;2.60;83.60;;;;;;4909674;29;20303;-75
2022/12/13 07:07:25;;;;;;;9.82;6.28;;;2.60;83.60;;;;;;4914014;29;20860;-74
2022/12/13 07:09:54;;;;;;;10.25;7.13;;;2.60;83.60;;;;;;4910627;28;20689;-73
2022/12/13 07:12:22;;;;;;;7.78;6.03;;;2.60;83.60;;;;;;4909160;29;20284;-74
2022/12/13 07:14:53;;;;;;;9.50;7.32;;;2.50;83.50;;;;;;4907761;29;20224;-73
2022/12/13 07:17:22;;;;;;;9.38;7.05;;;2.60;83.60;;;;;;4909999;29;20244;-74
2022/12/13 07:20:00;;;;;;;9.82;6.38;;;2.60;83.50;;;;;;4919443;29;20271;-73
2022/12/13 07:22:30;;;;;;;9.45;6.85;;;2.60;83.50;;;;;;4896575;29;20197;-74
2022/12/13 07:25:03;;;;;;;8.77;5.82;;;2.50;83.40;;;;;;4917857;29;20228;-74
2022/12/13 07:27:32;;;;;;;8.35;5.70;;;2.50;83.50;;;;;;4911378;29;20252;-75
2022/12/13 07:30:01;;;;;;;8.60;6.80;;;2.50;83.50;;;;;;4909443;29;20985;-73
2022/12/13 07:32:30;;;;;;;10.23;6.72;;;2.50;83.30;;;;;;4904961;29;20239;-73
2022/12/13 07:34:58;;;;;;;11.65;6.38;;;2.50;83.40;;;;;;4916010;29;20227;-72
2022/12/13 07:37:27;;;;;;;9.98;6.95;;;2.50;83.40;;;;;;4908574;29;20299;-73
2022/12/13 07:40:00;;;;;;;9.93;6.07;;;2.50;83.50;;;;;;4915571;29;20228;-73
2022/12/13 07:42:32;;;;;;;9.20;5.43;;;2.50;83.40;;;;;;4909485;29;20638;-73
2022/12/13 07:45:00;;;;;;;10.90;6.03;;;2.50;83.40;;;;;;4928052;29;20689;-74
2022/12/13 07:47:30;;;;;;;11.90;6.65;;;2.50;83.40;;;;;;4927379;29;20312;-72
2022/12/13 07:49:58;;;;;;;12.85;6.82;;;2.50;83.40;;;;;;4925467;29;20513;-73
2022/12/13 07:52:29;;;;;;;9.63;6.43;;;2.50;83.30;;;;;;4921011;29;20205;-75
2022/12/13 07:54:57;;;;;;;9.82;6.45;;;2.50;83.40;;;;;;4907094;29;20225;-73
2022/12/13 07:57:27;;;;;;;10.60;7.13;;;2.50;83.30;;;;;;4920040;29;20217;-73
2022/12/13 07:59:55;;;;;;;8.73;5.93;;;2.50;83.10;;;;;;4907404;29;20633;-73
2022/12/13 08:02:24;;;;;;;9.80;6.70;;;2.50;83.30;;;;;;4919912;29;20451;-74
2022/12/13 08:04:52;;;;;;;13.38;6.90;;;2.50;83.40;;;;;;4931184;28;20221;-75
2022/12/13 08:07:22;;;;;;;10.18;6.10;;;2.50;83.30;;;;;;4914306;29;20651;-75
2022/12/13 08:09:50;;;;;;;7.82;5.82;;;2.40;83.30;;;;;;4906302;29;20587;-73
2022/12/13 08:12:20;;;;;;;9.23;6.35;;;2.50;83.40;;;;;;4920387;29;20233;-73
2022/12/13 08:14:51;;;;;;;8.70;6.03;;;2.40;83.30;;;;;;4911494;29;20253;-73
2022/12/13 08:17:21;;;;;;;8.65;6.03;;;2.40;83.20;;;;;;4912055;29;20225;-73
2022/12/13 08:19:49;;;;;;;8.45;5.70;;;2.40;83.30;;;;;;4896478;29;20217;-74
2022/12/13 08:22:19;;;;;;;9.55;5.60;;;2.40;83.30;;;;;;4914075;29;20201;-74
2022/12/13 08:24:51;;;;;;;11.52;7.20;;;2.50;83.20;;;;;;4915151;28;20228;-73
2022/12/13 08:27:20;;;;;;;10.57;7.88;;;2.40;83.10;;;;;;4927436;29;20230;-72
2022/12/13 08:29:48;;;;;;;10.43;6.40;;;2.40;83.30;;;;;;4919467;29;20225;-74
2022/12/13 08:32:18;;;;;;;10.38;7.95;;;2.40;83.30;;;;;;4911674;29;20253;-74
2022/12/13 08:34:46;;;;;;;7.32;5.53;;;2.40;83.20;;;;;;4913065;29;20224;-72
2022/12/13 08:37:15;;;;;;;11.85;8.15;;;2.40;83.20;;;;;;4911465;29;20317;-73
2022/12/13 08:39:44;;;;;;;9.93;6.03;;;2.40;82.70;;;;;;4917029;29;20231;-73
2022/12/13 08:42:14;;;;;;;7.25;5.85;;;2.40;83.20;;;;;;4914670;29;20225;-73
2022/12/13 08:44:48;;;;;;;11.25;7.25;;;2.40;83.30;;;;;;4918460;28;20221;-73
2022/12/13 08:47:19;;;;;;;9.43;6.80;;;2.40;83.30;;;;;;4925774;29;20308;-73
2022/12/13 08:49:53;;;;;;;11.80;6.40;;;2.40;83.30;;;;;;4913275;29;20252;-74
2022/12/13 08:52:23;;;;;;;10.40;6.35;;;2.40;83.00;;;;;;4926267;29;20232;-69
2022/12/13 08:54:51;;;;;;;13.18;7.78;;;2.40;83.20;;;;;;4905865;29;20233;-69
2022/12/13 08:57:20;;;;;;;10.40;7.68;;;2.30;83.10;;;;;;4926440;29;20888;-67
2022/12/13 08:59:48;;;;;;;9.80;7.47;;;2.40;83.00;;;;;;4920183;29;20709;-69
2022/12/13 09:02:18;;;;;;;10.95;8.27;;;2.30;82.70;;;;;;4922456;29;20197;-67
2022/12/13 09:04:46;;;;;;;12.75;7.55;;;2.40;84.20;;;;;;4909503;29;20236;-68
2022/12/13 09:07:15;;;;;;;9.27;6.50;;;2.40;83.10;;;;;;4919535;29;20315;-68
2022/12/13 09:09:43;;;;;;;11.23;7.45;;;2.30;83.10;;;;;;4916815;29;20311;-69
2022/12/13 09:12:11;;;;;;;12.68;7.13;;;2.40;83.20;;;;;;4915985;29;20218;-69
2022/12/13 09:14:58;;;;;;;12.57;7.95;;;2.30;83.10;;;;;;4911303;29;20213;-68
2022/12/13 09:17:33;;;;;;;11.10;7.90;;;2.40;83.10;;;;;;4914885;29;20706;-68
2022/12/13 09:20:06;;;;;;;9.15;6.63;;;2.40;83.10;;;;;;4911239;29;20252;-69
2022/12/13 09:22:55;;;;;;;10.38;6.95;;;2.30;83.10;;;;;;4915879;29;20197;-67
2022/12/13 09:25:31;;;;;;;12.77;7.43;;;2.30;83.10;;;;;;4918246;29;20323;-67
2022/12/13 09:28:07;;;;;;;9.63;6.78;;;2.30;83.10;;;;;;4927381;29;20237;-69
2022/12/13 09:30:36;;;;;;;8.25;6.43;;;2.40;83.20;;;;;;4911431;29;20229;-68
2022/12/13 09:33:06;;;;;;;12.27;8.30;;;2.30;83.00;;;;;;4923845;29;20198;-68
2022/12/13 09:35:54;;;;;;;10.32;6.20;;;2.40;82.70;;;;;;4922347;29;20565;-68
2022/12/13 09:38:23;;;;;;;12.80;8.40;;;2.40;83.10;;;;;;4910872;29;20217;-67
2022/12/13 09:40:54;;;;;;;11.50;7.28;;;2.40;83.10;;;;;;4917973;29;20327;-68
2022/12/13 09:43:31;;;;;;;11.52;6.20;;;2.40;82.80;;;;;;4910868;29;20276;-68
2022/12/13 09:46:23;;;;;;;11.82;7.10;;;2.40;83.00;;;;;;4911397;29;20257;-69
2022/12/13 09:48:55;;;;;;;11.57;6.70;;;2.30;82.80;;;;;;4908744;29;20315;-67
2022/12/13 09:51:31;;;;;;;10.05;6.80;;;2.40;83.00;;;;;;4912964;29;20276;-68
2022/12/13 09:54:16;;;;;;;9.77;6.97;;;2.40;82.80;;;;;;4907079;29;20233;-66
2022/12/13 09:56:49;;;;;;;8.52;6.63;;;2.40;83.00;;;;;;4922751;29;20284;-68
2022/12/13 09:59:21;;;;;;;10.30;7.28;;;2.30;82.90;;;;;;4912861;29;20260;-68
2022/12/13 10:01:49;;;;;;;10.43;6.20;;;2.40;83.00;;;;;;4909760;29;20197;-68
2022/12/13 10:04:19;;;;;;;13.93;8.50;;;2.30;84.10;;;;;;4915304;28;20883;-68
2022/12/13 10:06:52;;;;;;;11.27;7.75;;;2.40;82.70;;;;;;4914191;29;20197;-69
2022/12/13 10:09:20;;;;;;;11.15;6.70;;;2.30;82.70;;;;;;4933011;28;20256;-68
2022/12/13 10:11:50;;;;;;;10.30;7.72;;;2.30;82.90;;;;;;4910134;29;20583;-69
2022/12/13 10:14:26;;;;;;;11.20;6.90;;;2.30;82.90;;;;;;4910799;29;20430;-68
2022/12/13 10:16:56;;;;;;;8.07;6.22;;;2.30;83.00;;;;;;4914820;29;20192;-69
2022/12/13 10:19:30;;;;;;;12.32;8.02;;;2.30;82.90;;;;;;4911129;29;20229;-68
2022/12/13 10:22:00;;;;;;;10.85;5.70;;;2.30;82.50;;;;;;4909840;29;20756;-68
2022/12/13 10:24:47;;;;;;;12.13;7.85;;;2.30;82.90;;;;;;4912052;29;20668;-68
2022/12/13 10:27:17;;;;;;;10.85;7.00;;;2.30;84.20;;;;;;4916360;29;20279;-70
2022/12/13 10:30:09;;;;;;;16.17;9.90;;;2.30;83.10;;;;;;4908053;29;20466;-68
2022/12/13 10:32:48;;;;;;;10.23;8.07;;;2.40;82.80;;;;;;4910451;29;20261;-68
2022/12/13 10:35:24;;;;;;;11.13;7.60;;;2.40;82.70;;;;;;4926687;29;20535;-69
2022/12/13 10:37:55;;;;;;;11.52;7.80;;;2.30;82.90;;;;;;4915105;29;20242;-68
2022/12/13 10:40:31;;;;;;;10.13;6.45;;;2.30;82.80;;;;;;4937254;29;20516;-68
2022/12/13 10:43:14;;;;;;;17.40;7.82;;;2.30;83.00;;;;;;4912345;29;20249;-69
2022/12/13 10:45:56;;;;;;;10.35;6.85;;;2.30;83.00;;;;;;4906872;29;20252;-69
2022/12/13 10:48:29;;;;;;;9.13;7.20;;;2.30;83.10;;;;;;4914181;29;20227;-67
2022/12/13 10:51:10;;;;;;;13.35;8.52;;;2.30;82.60;;;;;;4921234;29;20295;-68
2022/12/13 10:53:41;;;;;;;9.80;7.40;;;2.30;82.60;;;;;;4906471;29;20221;-68
2022/12/13 10:56:19;;;;;;;10.00;6.85;;;2.30;82.90;;;;;;4915141;29;20209;-68
2022/12/13 10:59:10;;;;;;;11.88;7.80;;;2.30;83.00;;;;;;4906602;29;20228;-67
2022/12/13 11:01:45;;;;;;;12.27;8.00;;;2.30;83.10;;;;;;4924364;29;20197;-69
2022/12/13 11:04:23;;;;;;;10.88;7.30;;;2.30;83.10;;;;;;4925139;28;20229;-68
2022/12/13 11:06:58;;;;;;;15.52;9.88;;;2.30;83.10;;;;;;4906400;29;20620;-70
2022/12/13 11:09:29;;;;;;;12.20;7.03;;;2.30;83.00;;;;;;4917162;29;20413;-68
2022/12/13 11:12:15;;;;;;;10.73;7.15;;;2.30;83.10;;;;;;4917072;29;20232;-68
2022/12/13 11:14:52;;;;;;;11.90;6.80;;;2.30;83.10;;;;;;4906769;29;20708;-68
2022/12/13 11:17:23;;;;;;;9.95;6.70;;;2.30;83.30;;;;;;4913983;29;20550;-68
2022/12/13 11:19:54;;;;;;;9.00;6.95;;;2.30;83.30;;;;;;4908948;29;20227;-68
2022/12/13 11:22:27;;;;;;;9.48;6.97;;;2.30;83.20;;;;;;4932982;29;20197;-67
2022/12/13 11:25:01;;;;;;;13.15;7.47;;;2.30;83.20;;;;;;4913458;29;20303;-69
2022/12/13 11:27:45;;;;;;;10.15;6.97;;;2.30;83.10;;;;;;4911642;29;20217;-70
2022/12/13 11:30:20;;;;;;;6.72;5.65;;;2.30;83.10;;;;;;4910574;29;20229;-68
2022/12/13 11:33:11;;;;;;;10.80;7.82;;;2.30;83.20;;;;;;4909494;29;20306;-68
2022/12/13 11:36:00;;;;;;;12.65;5.78;;;2.30;83.10;;;;;;4902079;29;20203;-68
2022/12/13 11:38:36;;;;;;;6.70;5.10;;;2.30;83.20;;;;;;4907360;29;20244;-68
2022/12/13 11:41:13;;;;;;;9.80;6.85;;;2.30;83.10;;;;;;4914109;29;20448;-69
2022/12/13 11:44:04;;;;;;;7.68;6.60;;;2.30;83.30;;;;;;4926273;28;20220;-69
2022/12/13 11:46:40;;;;;;;12.13;6.18;;;2.30;83.30;;;;;;4908413;29;20313;-68
2022/12/13 11:49:16;;;;;;;9.43;6.70;;;2.30;83.40;;;;;;4917569;29;20236;-67
2022/12/13 11:51:50;;;;;;;10.35;6.78;;;2.30;83.30;;;;;;4917010;29;20276;-68
2022/12/13 11:54:28;;;;;;;11.20;7.13;;;2.30;83.40;;;;;;4905092;29;20315;-68
2022/12/13 11:56:59;;;;;;;9.10;6.13;;;2.30;83.30;;;;;;4908250;29;20213;-69
2022/12/13 11:59:42;;;;;;;12.05;6.65;;;2.30;83.30;;;;;;4912197;29;20217;-72
2022/12/13 12:02:20;;;;;;;8.65;6.65;;;2.30;83.40;;;;;;4911751;29;20197;-67
2022/12/13 12:04:52;;;;;;;9.40;6.03;;;2.30;83.40;;;;;;4925610;29;20241;-73
2022/12/13 12:07:33;;;;;;;8.00;5.10;;;2.30;83.40;;;;;;4918535;29;20228;-73
2022/12/13 12:10:19;;;;;;;9.30;7.03;;;2.30;83.50;;;;;;4924580;29;20232;-73
2022/12/13 12:12:53;;;;;;;9.27;6.03;;;2.30;83.60;;;;;;4902671;29;20209;-73
2022/12/13 12:15:26;;;;;;;9.02;5.70;;;2.30;83.50;;;;;;4908616;29;20206;-73
2022/12/13 12:17:55;;;;;;;7.20;6.03;;;2.30;83.60;;;;;;4915004;29;20313;-74
2022/12/13 12:20:44;;;;;;;7.40;5.53;;;2.30;83.20;;;;;;4910098;29;20205;-74
2022/12/13 12:23:25;;;;;;;12.23;6.93;;;2.20;83.40;;;;;;4907762;29;20213;-74
2022/12/13 12:26:01;;;;;;;9.95;5.88;;;2.30;83.50;;;;;;4905767;29;20190;-74
2022/12/13 12:28:40;;;;;;;9.27;6.47;;;2.30;83.60;;;;;;4923068;29;20225;-73
2022/12/13 12:31:22;;;;;;;10.73;6.25;;;2.20;83.50;;;;;;4919963;29;20212;-73
2022/12/13 12:34:01;;;;;;;10.38;5.78;;;2.20;83.50;;;;;;4906809;29;20213;-72
2022/12/13 12:36:43;;;;;;;7.25;5.38;;;2.30;83.70;;;;;;4916148;29;20205;-74
2022/12/13 12:39:28;;;;;;;9.65;6.38;;;2.20;83.50;;;;;;4915438;29;20654;-74
2022/12/13 12:42:14;;;;;;;12.05;6.30;;;2.20;83.50;;;;;;4922273;29;20202;-73
2022/12/13 12:44:56;;;;;;;6.88;5.57;;;2.30;83.60;;;;;;4904405;29;20221;-74
2022/12/13 12:47:34;;;;;;;8.52;5.05;;;2.20;83.50;;;;;;4930264;29;20276;-73
2022/12/13 12:50:31;;;;;;;8.43;6.47;;;2.20;83.60;;;;;;4921967;29;20226;-73
2022/12/13 12:53:21;;;;;;;7.85;5.72;;;2.20;83.50;;;;;;4910188;29;20249;-75
2022/12/13 12:55:56;;;;;;;8.48;5.68;;;2.20;83.40;;;;;;4913862;29;20202;-75
2022/12/13 12:58:34;;;;;;;9.48;6.30;;;2.20;83.60;;;;;;4912349;29;20229;-73
2022/12/13 13:01:14;;;;;;;7.22;4.90;;;2.20;83.60;;;;;;4928028;29;20234;-75
2022/12/13 13:03:44;;;;;;;10.18;5.20;;;2.20;83.70;;;;;;4908047;28;20681;-73
2022/12/13 13:06:15;;;;;;;6.97;4.93;;;2.20;83.60;;;;;;4927177;29;20201;-72
2022/12/13 13:08:47;;;;;;;7.57;4.93;;;2.20;83.70;;;;;;4906436;29;20823;-74
2022/12/13 13:11:24;;;;;;;7.97;5.97;;;2.20;83.80;;;;;;4935140;29;20657;-75
2022/12/13 13:14:07;;;;;;;10.02;6.18;;;2.20;83.70;;;;;;4924071;28;20710;-74
2022/12/13 13:16:37;;;;;;;9.43;5.68;;;2.20;84.90;;;;;;4910318;29;20681;-74
2022/12/13 13:19:42;;;;;;;9.55;5.60;;;2.20;83.60;;;;;;4912186;29;20696;-74
2022/12/13 13:22:30;;;;;;;9.45;6.05;;;2.20;83.60;;;;;;4919591;29;20640;-74
2022/12/13 13:25:21;;;;;;;8.07;5.57;;;2.20;83.60;;;;;;4911747;29;20232;-72
2022/12/13 13:27:51;;;;;;;8.18;4.80;;;2.20;83.60;;;;;;4904771;29;20220;-74
2022/12/13 13:30:23;;;;;;;6.13;4.20;;;2.20;83.60;;;;;;4910987;29;20205;-73